sensor_id;sensor_type;location;lat;lon;timestamp;P1;durP1;ratioP1;P2;durP2;ratioP2
21729;SDS011;11027;51.030;13.812;2022-12-18T00:00:43;58.90;;;29.25;;
21729;SDS011;11027;51.030;13.812;2022-12-18T00:03:11;56.15;;;27.88;;
21729;SDS011;11027;51.030;13.812;2022-12-18T00:05:37;60.30;;;28.17;;
21729;SDS011;11027;51.030;13.812;2022-12-18T00:08:02;55.63;;;28.10;;
21729;SDS011;11027;51.030;13.812;2022-12-18T00:10:27;55.05;;;26.08;;
21729;SDS011;11027;51.030;13.812;2022-12-18T00:12:53;59.30;;;27.80;;
21729;SDS011;11027;51.030;13.812;2022-12-18T00:15:19;52.05;;;27.48;;
21729;SDS011;11027;51.030;13.812;2022-12-18T00:17:44;53.35;;;25.88;;
21729;SDS011;11027;51.030;13.812;2022-12-18T00:20:10;54.42;;;24.92;;
21729;SDS011;11027;51.030;13.812;2022-12-18T00:22:35;48.85;;;24.05;;
21729;SDS011;11027;51.030;13.812;2022-12-18T00:25:00;54.10;;;25.10;;
21729;SDS011;11027;51.030;13.812;2022-12-18T00:27:26;54.70;;;25.23;;
21729;SDS011;11027;51.030;13.812;2022-12-18T00:29:51;50.45;;;24.33;;
21729;SDS011;11027;51.030;13.812;2022-12-18T00:32:16;49.17;;;23.38;;
21729;SDS011;11027;51.030;13.812;2022-12-18T00:34:42;45.40;;;23.80;;
21729;SDS011;11027;51.030;13.812;2022-12-18T00:37:07;50.03;;;22.50;;
21729;SDS011;11027;51.030;13.812;2022-12-18T00:39:32;47.42;;;22.30;;
21729;SDS011;11027;51.030;13.812;2022-12-18T00:41:58;46.45;;;22.85;;
21729;SDS011;11027;51.030;13.812;2022-12-18T00:44:43;42.55;;;21.00;;
21729;SDS011;11027;51.030;13.812;2022-12-18T00:47:08;42.08;;;20.15;;
21729;SDS011;11027;51.030;13.812;2022-12-18T00:49:34;42.67;;;20.85;;
21729;SDS011;11027;51.030;13.812;2022-12-18T00:51:59;46.03;;;22.02;;
21729;SDS011;11027;51.030;13.812;2022-12-18T00:54:24;44.10;;;22.25;;
21729;SDS011;11027;51.030;13.812;2022-12-18T00:56:50;44.83;;;21.35;;
21729;SDS011;11027;51.030;13.812;2022-12-18T00:59:18;40.92;;;21.00;;
21729;SDS011;11027;51.030;13.812;2022-12-18T01:01:43;43.83;;;21.65;;
21729;SDS011;11027;51.030;13.812;2022-12-18T01:04:09;43.70;;;20.85;;
21729;SDS011;11027;51.030;13.812;2022-12-18T01:06:34;40.53;;;20.00;;
21729;SDS011;11027;51.030;13.812;2022-12-18T01:09:00;41.13;;;20.25;;
21729;SDS011;11027;51.030;13.812;2022-12-18T01:11:25;42.97;;;19.80;;
21729;SDS011;11027;51.030;13.812;2022-12-18T01:13:51;38.40;;;19.58;;
21729;SDS011;11027;51.030;13.812;2022-12-18T01:16:18;39.78;;;19.02;;
21729;SDS011;11027;51.030;13.812;2022-12-18T01:18:43;39.88;;;20.27;;
21729;SDS011;11027;51.030;13.812;2022-12-18T01:21:10;41.88;;;19.85;;
21729;SDS011;11027;51.030;13.812;2022-12-18T01:23:38;35.83;;;18.95;;
21729;SDS011;11027;51.030;13.812;2022-12-18T01:26:07;40.03;;;19.67;;
21729;SDS011;11027;51.030;13.812;2022-12-18T01:28:34;42.85;;;19.60;;
21729;SDS011;11027;51.030;13.812;2022-12-18T01:31:13;43.22;;;19.60;;
21729;SDS011;11027;51.030;13.812;2022-12-18T01:33:39;38.67;;;18.48;;
21729;SDS011;11027;51.030;13.812;2022-12-18T01:36:04;40.35;;;19.17;;
21729;SDS011;11027;51.030;13.812;2022-12-18T01:38:30;41.15;;;18.63;;
21729;SDS011;11027;51.030;13.812;2022-12-18T01:40:59;41.08;;;18.83;;
21729;SDS011;11027;51.030;13.812;2022-12-18T01:43:45;39.90;;;17.63;;
21729;SDS011;11027;51.030;13.812;2022-12-18T01:46:13;32.30;;;16.05;;
21729;SDS011;11027;51.030;13.812;2022-12-18T01:48:39;33.35;;;17.58;;
21729;SDS011;11027;51.030;13.812;2022-12-18T01:51:06;35.17;;;16.00;;
21729;SDS011;11027;51.030;13.812;2022-12-18T01:53:33;31.23;;;15.50;;
21729;SDS011;11027;51.030;13.812;2022-12-18T01:55:58;30.67;;;14.73;;
21729;SDS011;11027;51.030;13.812;2022-12-18T01:58:27;27.00;;;14.07;;
21729;SDS011;11027;51.030;13.812;2022-12-18T02:01:00;29.45;;;14.38;;
21729;SDS011;11027;51.030;13.812;2022-12-18T02:03:26;27.90;;;13.38;;
21729;SDS011;11027;51.030;13.812;2022-12-18T02:05:57;27.08;;;13.82;;
21729;SDS011;11027;51.030;13.812;2022-12-18T02:08:26;29.58;;;13.75;;
21729;SDS011;11027;51.030;13.812;2022-12-18T02:19:42;32.63;;;15.40;;
21729;SDS011;11027;51.030;13.812;2022-12-18T02:27:40;27.92;;;13.43;;
21729;SDS011;11027;51.030;13.812;2022-12-18T02:30:09;24.02;;;12.85;;
21729;SDS011;11027;51.030;13.812;2022-12-18T02:32:37;28.15;;;12.48;;
21729;SDS011;11027;51.030;13.812;2022-12-18T02:35:09;24.30;;;12.57;;
21729;SDS011;11027;51.030;13.812;2022-12-18T02:37:38;23.00;;;12.55;;
21729;SDS011;11027;51.030;13.812;2022-12-18T02:40:06;27.67;;;13.35;;
21729;SDS011;11027;51.030;13.812;2022-12-18T02:42:32;27.33;;;12.57;;
21729;SDS011;11027;51.030;13.812;2022-12-18T02:44:58;28.25;;;12.32;;
21729;SDS011;11027;51.030;13.812;2022-12-18T02:47:31;27.85;;;13.05;;
21729;SDS011;11027;51.030;13.812;2022-12-18T02:53:17;23.77;;;11.85;;
21729;SDS011;11027;51.030;13.812;2022-12-18T02:55:53;22.75;;;11.85;;
21729;SDS011;11027;51.030;13.812;2022-12-18T03:04:04;25.75;;;12.13;;
21729;SDS011;11027;51.030;13.812;2022-12-18T03:06:36;26.13;;;11.23;;
21729;SDS011;11027;51.030;13.812;2022-12-18T03:09:12;24.42;;;11.55;;
21729;SDS011;11027;51.030;13.812;2022-12-18T03:11:43;19.55;;;10.52;;
21729;SDS011;11027;51.030;13.812;2022-12-18T03:14:35;21.35;;;10.20;;
21729;SDS011;11027;51.030;13.812;2022-12-18T03:17:03;22.23;;;10.30;;
21729;SDS011;11027;51.030;13.812;2022-12-18T03:19:32;18.75;;;10.02;;
21729;SDS011;11027;51.030;13.812;2022-12-18T03:21:58;18.42;;;9.60;;
21729;SDS011;11027;51.030;13.812;2022-12-18T03:24:27;20.73;;;10.27;;
21729;SDS011;11027;51.030;13.812;2022-12-18T03:26:55;21.50;;;10.10;;
21729;SDS011;11027;51.030;13.812;2022-12-18T03:29:26;17.90;;;9.50;;
21729;SDS011;11027;51.030;13.812;2022-12-18T03:32:03;18.17;;;8.90;;
21729;SDS011;11027;51.030;13.812;2022-12-18T03:34:35;18.98;;;9.32;;
21729;SDS011;11027;51.030;13.812;2022-12-18T03:37:04;17.27;;;8.82;;
21729;SDS011;11027;51.030;13.812;2022-12-18T03:39:30;18.17;;;9.73;;
21729;SDS011;11027;51.030;13.812;2022-12-18T03:47:19;20.13;;;9.13;;
21729;SDS011;11027;51.030;13.812;2022-12-18T03:50:11;16.52;;;8.30;;
21729;SDS011;11027;51.030;13.812;2022-12-18T03:52:48;18.70;;;9.25;;
21729;SDS011;11027;51.030;13.812;2022-12-18T03:55:17;15.35;;;8.30;;
21729;SDS011;11027;51.030;13.812;2022-12-18T03:57:44;18.25;;;9.25;;
21729;SDS011;11027;51.030;13.812;2022-12-18T04:00:14;15.95;;;8.38;;
21729;SDS011;11027;51.030;13.812;2022-12-18T04:02:43;18.08;;;8.98;;
21729;SDS011;11027;51.030;13.812;2022-12-18T04:05:13;14.13;;;8.13;;
21729;SDS011;11027;51.030;13.812;2022-12-18T04:07:40;18.15;;;8.50;;
21729;SDS011;11027;51.030;13.812;2022-12-18T04:10:06;19.23;;;8.82;;
21729;SDS011;11027;51.030;13.812;2022-12-18T04:12:33;16.48;;;8.63;;
21729;SDS011;11027;51.030;13.812;2022-12-18T04:14:58;19.75;;;8.98;;
21729;SDS011;11027;51.030;13.812;2022-12-18T04:17:24;16.75;;;9.15;;
21729;SDS011;11027;51.030;13.812;2022-12-18T04:19:49;16.92;;;8.20;;
21729;SDS011;11027;51.030;13.812;2022-12-18T04:22:15;17.63;;;9.13;;
21729;SDS011;11027;51.030;13.812;2022-12-18T04:24:40;17.23;;;8.95;;
21729;SDS011;11027;51.030;13.812;2022-12-18T04:27:06;16.92;;;8.57;;
21729;SDS011;11027;51.030;13.812;2022-12-18T04:29:31;18.02;;;9.02;;
21729;SDS011;11027;51.030;13.812;2022-12-18T04:31:57;16.85;;;9.30;;
21729;SDS011;11027;51.030;13.812;2022-12-18T04:34:22;17.55;;;9.18;;
21729;SDS011;11027;51.030;13.812;2022-12-18T04:36:47;19.83;;;8.80;;
21729;SDS011;11027;51.030;13.812;2022-12-18T04:39:13;17.60;;;8.43;;
21729;SDS011;11027;51.030;13.812;2022-12-18T04:41:39;18.83;;;8.65;;
21729;SDS011;11027;51.030;13.812;2022-12-18T04:44:04;18.58;;;9.73;;
21729;SDS011;11027;51.030;13.812;2022-12-18T04:46:29;16.08;;;8.02;;
21729;SDS011;11027;51.030;13.812;2022-12-18T04:48:55;18.95;;;8.65;;
21729;SDS011;11027;51.030;13.812;2022-12-18T04:51:20;16.92;;;8.40;;
21729;SDS011;11027;51.030;13.812;2022-12-18T04:53:46;17.67;;;8.38;;
21729;SDS011;11027;51.030;13.812;2022-12-18T04:56:12;16.27;;;7.88;;
21729;SDS011;11027;51.030;13.812;2022-12-18T04:58:40;18.00;;;8.65;;
21729;SDS011;11027;51.030;13.812;2022-12-18T05:01:07;15.68;;;7.60;;
21729;SDS011;11027;51.030;13.812;2022-12-18T05:03:33;16.58;;;8.18;;
21729;SDS011;11027;51.030;13.812;2022-12-18T05:05:59;17.35;;;8.48;;
21729;SDS011;11027;51.030;13.812;2022-12-18T05:08:24;16.02;;;7.53;;
21729;SDS011;11027;51.030;13.812;2022-12-18T05:10:49;19.63;;;8.38;;
21729;SDS011;11027;51.030;13.812;2022-12-18T05:13:22;16.02;;;8.32;;
21729;SDS011;11027;51.030;13.812;2022-12-18T05:15:51;16.35;;;8.50;;
21729;SDS011;11027;51.030;13.812;2022-12-18T05:18:17;17.35;;;8.45;;
21729;SDS011;11027;51.030;13.812;2022-12-18T05:20:42;15.30;;;7.13;;
21729;SDS011;11027;51.030;13.812;2022-12-18T05:23:07;16.50;;;8.07;;
21729;SDS011;11027;51.030;13.812;2022-12-18T05:25:33;16.13;;;7.85;;
21729;SDS011;11027;51.030;13.812;2022-12-18T05:27:58;17.33;;;8.32;;
21729;SDS011;11027;51.030;13.812;2022-12-18T05:30:23;16.20;;;8.23;;
21729;SDS011;11027;51.030;13.812;2022-12-18T05:32:48;16.20;;;7.68;;
21729;SDS011;11027;51.030;13.812;2022-12-18T05:35:14;15.52;;;7.35;;
21729;SDS011;11027;51.030;13.812;2022-12-18T05:37:39;14.00;;;7.25;;
21729;SDS011;11027;51.030;13.812;2022-12-18T05:40:04;19.00;;;7.88;;
21729;SDS011;11027;51.030;13.812;2022-12-18T05:42:30;15.18;;;7.82;;
21729;SDS011;11027;51.030;13.812;2022-12-18T05:44:56;15.43;;;7.50;;
21729;SDS011;11027;51.030;13.812;2022-12-18T05:47:21;14.32;;;7.80;;
21729;SDS011;11027;51.030;13.812;2022-12-18T05:49:46;14.82;;;7.30;;
21729;SDS011;11027;51.030;13.812;2022-12-18T05:52:11;14.70;;;7.65;;
21729;SDS011;11027;51.030;13.812;2022-12-18T05:54:37;15.60;;;8.13;;
21729;SDS011;11027;51.030;13.812;2022-12-18T05:57:02;16.00;;;7.85;;
21729;SDS011;11027;51.030;13.812;2022-12-18T05:59:27;16.15;;;7.68;;
21729;SDS011;11027;51.030;13.812;2022-12-18T06:01:53;13.82;;;7.05;;
21729;SDS011;11027;51.030;13.812;2022-12-18T06:04:18;15.07;;;7.57;;
21729;SDS011;11027;51.030;13.812;2022-12-18T06:06:43;15.35;;;7.10;;
21729;SDS011;11027;51.030;13.812;2022-12-18T06:09:08;14.15;;;7.15;;
21729;SDS011;11027;51.030;13.812;2022-12-18T06:11:37;17.50;;;7.40;;
21729;SDS011;11027;51.030;13.812;2022-12-18T06:14:04;16.67;;;8.38;;
21729;SDS011;11027;51.030;13.812;2022-12-18T06:16:30;14.35;;;6.88;;
21729;SDS011;11027;51.030;13.812;2022-12-18T06:19:00;14.95;;;7.35;;
21729;SDS011;11027;51.030;13.812;2022-12-18T06:21:27;15.88;;;6.88;;
21729;SDS011;11027;51.030;13.812;2022-12-18T06:23:53;15.43;;;8.00;;
21729;SDS011;11027;51.030;13.812;2022-12-18T06:26:18;15.20;;;7.72;;
21729;SDS011;11027;51.030;13.812;2022-12-18T06:28:44;16.73;;;8.25;;
21729;SDS011;11027;51.030;13.812;2022-12-18T06:31:09;15.85;;;8.20;;
21729;SDS011;11027;51.030;13.812;2022-12-18T06:33:35;15.18;;;7.93;;
21729;SDS011;11027;51.030;13.812;2022-12-18T06:36:05;15.73;;;7.88;;
21729;SDS011;11027;51.030;13.812;2022-12-18T06:38:36;17.42;;;8.15;;
21729;SDS011;11027;51.030;13.812;2022-12-18T06:41:35;15.45;;;8.00;;
21729;SDS011;11027;51.030;13.812;2022-12-18T06:43:53;16.67;;;8.10;;
21729;SDS011;11027;51.030;13.812;2022-12-18T06:46:19;17.17;;;7.95;;
21729;SDS011;11027;51.030;13.812;2022-12-18T06:48:47;18.48;;;7.68;;
21729;SDS011;11027;51.030;13.812;2022-12-18T06:51:23;17.55;;;8.30;;
21729;SDS011;11027;51.030;13.812;2022-12-18T06:53:48;17.73;;;8.18;;
21729;SDS011;11027;51.030;13.812;2022-12-18T06:56:14;16.70;;;8.10;;
21729;SDS011;11027;51.030;13.812;2022-12-18T06:58:40;16.67;;;7.70;;
21729;SDS011;11027;51.030;13.812;2022-12-18T07:01:06;14.43;;;7.57;;
21729;SDS011;11027;51.030;13.812;2022-12-18T07:03:34;16.95;;;7.75;;
21729;SDS011;11027;51.030;13.812;2022-12-18T07:05:59;19.42;;;8.77;;
21729;SDS011;11027;51.030;13.812;2022-12-18T07:08:24;17.45;;;8.00;;
21729;SDS011;11027;51.030;13.812;2022-12-18T07:10:50;17.83;;;8.15;;
21729;SDS011;11027;51.030;13.812;2022-12-18T07:13:15;16.73;;;8.13;;
21729;SDS011;11027;51.030;13.812;2022-12-18T07:15:42;18.38;;;8.52;;
21729;SDS011;11027;51.030;13.812;2022-12-18T07:18:07;17.48;;;8.40;;
21729;SDS011;11027;51.030;13.812;2022-12-18T07:20:33;16.05;;;7.68;;
21729;SDS011;11027;51.030;13.812;2022-12-18T07:22:58;14.98;;;7.75;;
21729;SDS011;11027;51.030;13.812;2022-12-18T07:25:23;17.80;;;8.00;;
21729;SDS011;11027;51.030;13.812;2022-12-18T07:27:49;20.90;;;8.93;;
21729;SDS011;11027;51.030;13.812;2022-12-18T07:30:14;19.48;;;9.77;;
21729;SDS011;11027;51.030;13.812;2022-12-18T07:32:39;19.65;;;9.05;;
21729;SDS011;11027;51.030;13.812;2022-12-18T07:35:04;18.52;;;8.75;;
21729;SDS011;11027;51.030;13.812;2022-12-18T07:37:30;18.60;;;8.82;;
21729;SDS011;11027;51.030;13.812;2022-12-18T07:39:55;17.52;;;7.97;;
21729;SDS011;11027;51.030;13.812;2022-12-18T07:42:20;20.13;;;9.13;;
21729;SDS011;11027;51.030;13.812;2022-12-18T07:44:55;19.67;;;9.48;;
21729;SDS011;11027;51.030;13.812;2022-12-18T07:47:20;19.70;;;10.02;;
21729;SDS011;11027;51.030;13.812;2022-12-18T07:49:46;22.63;;;11.55;;
21729;SDS011;11027;51.030;13.812;2022-12-18T07:52:11;20.73;;;11.43;;
21729;SDS011;11027;51.030;13.812;2022-12-18T07:54:37;25.25;;;12.85;;
21729;SDS011;11027;51.030;13.812;2022-12-18T07:57:02;26.65;;;13.30;;
21729;SDS011;11027;51.030;13.812;2022-12-18T07:59:28;26.92;;;13.30;;
21729;SDS011;11027;51.030;13.812;2022-12-18T08:01:53;25.88;;;12.65;;
21729;SDS011;11027;51.030;13.812;2022-12-18T08:04:19;30.73;;;14.23;;
21729;SDS011;11027;51.030;13.812;2022-12-18T08:06:44;27.17;;;13.55;;
21729;SDS011;11027;51.030;13.812;2022-12-18T08:09:09;25.92;;;13.45;;
21729;SDS011;11027;51.030;13.812;2022-12-18T08:11:35;26.73;;;13.35;;
21729;SDS011;11027;51.030;13.812;2022-12-18T08:14:00;28.25;;;12.70;;
21729;SDS011;11027;51.030;13.812;2022-12-18T08:16:26;26.33;;;11.90;;
21729;SDS011;11027;51.030;13.812;2022-12-18T08:18:52;29.13;;;12.95;;
21729;SDS011;11027;51.030;13.812;2022-12-18T08:21:19;26.02;;;12.65;;
21729;SDS011;11027;51.030;13.812;2022-12-18T08:23:48;29.98;;;12.85;;
21729;SDS011;11027;51.030;13.812;2022-12-18T08:26:17;25.73;;;12.30;;
21729;SDS011;11027;51.030;13.812;2022-12-18T08:28:43;29.27;;;12.85;;
21729;SDS011;11027;51.030;13.812;2022-12-18T08:31:08;29.27;;;13.70;;
21729;SDS011;11027;51.030;13.812;2022-12-18T08:33:34;24.83;;;12.93;;
21729;SDS011;11027;51.030;13.812;2022-12-18T08:36:01;25.88;;;13.23;;
21729;SDS011;11027;51.030;13.812;2022-12-18T08:38:27;26.08;;;13.43;;
21729;SDS011;11027;51.030;13.812;2022-12-18T08:40:59;27.77;;;13.45;;
21729;SDS011;11027;51.030;13.812;2022-12-18T08:43:25;27.38;;;14.18;;
21729;SDS011;11027;51.030;13.812;2022-12-18T08:46:10;29.55;;;14.48;;
21729;SDS011;11027;51.030;13.812;2022-12-18T08:48:35;31.15;;;15.55;;
21729;SDS011;11027;51.030;13.812;2022-12-18T08:51:01;29.13;;;15.07;;
21729;SDS011;11027;51.030;13.812;2022-12-18T08:53:26;34.83;;;15.95;;
21729;SDS011;11027;51.030;13.812;2022-12-18T08:55:52;34.85;;;16.25;;
21729;SDS011;11027;51.030;13.812;2022-12-18T08:58:18;43.25;;;18.45;;
21729;SDS011;11027;51.030;13.812;2022-12-18T09:00:44;36.75;;;17.75;;
21729;SDS011;11027;51.030;13.812;2022-12-18T09:03:13;39.97;;;18.92;;
21729;SDS011;11027;51.030;13.812;2022-12-18T09:05:42;39.53;;;18.40;;
21729;SDS011;11027;51.030;13.812;2022-12-18T09:08:08;42.88;;;19.65;;
21729;SDS011;11027;51.030;13.812;2022-12-18T09:10:33;46.67;;;20.98;;
21729;SDS011;11027;51.030;13.812;2022-12-18T09:12:59;49.25;;;21.20;;
21729;SDS011;11027;51.030;13.812;2022-12-18T09:15:25;45.85;;;20.33;;
21729;SDS011;11027;51.030;13.812;2022-12-18T09:17:50;49.05;;;23.55;;
21729;SDS011;11027;51.030;13.812;2022-12-18T09:20:17;54.35;;;21.75;;
21729;SDS011;11027;51.030;13.812;2022-12-18T09:22:43;55.53;;;22.63;;
21729;SDS011;11027;51.030;13.812;2022-12-18T09:25:08;50.28;;;22.08;;
21729;SDS011;11027;51.030;13.812;2022-12-18T09:27:34;55.38;;;22.33;;
21729;SDS011;11027;51.030;13.812;2022-12-18T09:29:59;46.90;;;21.33;;
21729;SDS011;11027;51.030;13.812;2022-12-18T09:32:25;48.67;;;21.88;;
21729;SDS011;11027;51.030;13.812;2022-12-18T09:34:50;52.30;;;22.75;;
21729;SDS011;11027;51.030;13.812;2022-12-18T09:37:15;49.03;;;22.45;;
21729;SDS011;11027;51.030;13.812;2022-12-18T09:39:40;50.30;;;21.95;;
21729;SDS011;11027;51.030;13.812;2022-12-18T09:42:06;49.95;;;20.23;;
21729;SDS011;11027;51.030;13.812;2022-12-18T09:44:41;44.38;;;20.67;;
21729;SDS011;11027;51.030;13.812;2022-12-18T09:47:15;47.47;;;20.47;;
21729;SDS011;11027;51.030;13.812;2022-12-18T09:49:52;49.90;;;22.73;;
21729;SDS011;11027;51.030;13.812;2022-12-18T09:52:35;54.40;;;23.27;;
21729;SDS011;11027;51.030;13.812;2022-12-18T10:01:09;50.17;;;22.45;;
21729;SDS011;11027;51.030;13.812;2022-12-18T10:03:36;51.10;;;23.02;;
21729;SDS011;11027;51.030;13.812;2022-12-18T10:06:06;48.15;;;21.08;;
21729;SDS011;11027;51.030;13.812;2022-12-18T10:11:20;46.25;;;20.58;;
21729;SDS011;11027;51.030;13.812;2022-12-18T10:14:02;45.42;;;20.45;;
21729;SDS011;11027;51.030;13.812;2022-12-18T10:16:41;40.78;;;19.05;;
21729;SDS011;11027;51.030;13.812;2022-12-18T10:19:34;44.15;;;19.98;;
21729;SDS011;11027;51.030;13.812;2022-12-18T10:22:13;45.35;;;20.27;;
21729;SDS011;11027;51.030;13.812;2022-12-18T10:25:16;42.28;;;20.02;;
21729;SDS011;11027;51.030;13.812;2022-12-18T10:27:43;44.25;;;19.52;;
21729;SDS011;11027;51.030;13.812;2022-12-18T10:30:13;46.35;;;21.25;;
21729;SDS011;11027;51.030;13.812;2022-12-18T10:32:43;44.08;;;19.73;;
21729;SDS011;11027;51.030;13.812;2022-12-18T10:35:19;48.65;;;20.33;;
21729;SDS011;11027;51.030;13.812;2022-12-18T10:38:04;38.40;;;19.73;;
21729;SDS011;11027;51.030;13.812;2022-12-18T10:40:29;39.78;;;18.17;;
21729;SDS011;11027;51.030;13.812;2022-12-18T10:43:05;42.72;;;19.80;;
21729;SDS011;11027;51.030;13.812;2022-12-18T10:45:36;39.83;;;19.30;;
21729;SDS011;11027;51.030;13.812;2022-12-18T10:48:01;42.13;;;19.95;;
21729;SDS011;11027;51.030;13.812;2022-12-18T10:50:29;41.50;;;20.42;;
21729;SDS011;11027;51.030;13.812;2022-12-18T10:52:57;43.05;;;19.48;;
21729;SDS011;11027;51.030;13.812;2022-12-18T10:55:32;48.42;;;21.75;;
21729;SDS011;11027;51.030;13.812;2022-12-18T11:03:46;40.33;;;19.65;;
21729;SDS011;11027;51.030;13.812;2022-12-18T11:06:24;46.78;;;20.00;;
21729;SDS011;11027;51.030;13.812;2022-12-18T11:09:33;40.00;;;18.00;;
21729;SDS011;11027;51.030;13.812;2022-12-18T11:12:05;42.78;;;18.63;;
21729;SDS011;11027;51.030;13.812;2022-12-18T11:14:48;42.97;;;18.83;;
21729;SDS011;11027;51.030;13.812;2022-12-18T11:17:23;43.00;;;19.55;;
21729;SDS011;11027;51.030;13.812;2022-12-18T11:19:54;41.13;;;18.05;;
21729;SDS011;11027;51.030;13.812;2022-12-18T11:22:25;43.15;;;18.80;;
21729;SDS011;11027;51.030;13.812;2022-12-18T11:24:59;40.80;;;19.13;;
21729;SDS011;11027;51.030;13.812;2022-12-18T11:27:28;40.30;;;19.08;;
21729;SDS011;11027;51.030;13.812;2022-12-18T11:30:07;39.10;;;19.40;;
21729;SDS011;11027;51.030;13.812;2022-12-18T11:32:47;35.65;;;16.52;;
21729;SDS011;11027;51.030;13.812;2022-12-18T11:35:17;39.28;;;19.08;;
21729;SDS011;11027;51.030;13.812;2022-12-18T11:38:07;38.65;;;18.80;;
21729;SDS011;11027;51.030;13.812;2022-12-18T11:41:02;38.40;;;18.02;;
21729;SDS011;11027;51.030;13.812;2022-12-18T11:43:47;43.90;;;18.67;;
21729;SDS011;11027;51.030;13.812;2022-12-18T11:46:19;42.10;;;18.58;;
21729;SDS011;11027;51.030;13.812;2022-12-18T11:49:01;37.95;;;18.58;;
21729;SDS011;11027;51.030;13.812;2022-12-18T11:51:37;34.72;;;17.35;;
21729;SDS011;11027;51.030;13.812;2022-12-18T11:54:12;32.45;;;16.25;;
21729;SDS011;11027;51.030;13.812;2022-12-18T11:56:49;36.65;;;17.70;;
21729;SDS011;11027;51.030;13.812;2022-12-18T12:13:57;38.35;;;17.08;;
21729;SDS011;11027;51.030;13.812;2022-12-18T12:16:29;36.47;;;16.42;;
21729;SDS011;11027;51.030;13.812;2022-12-18T12:21:28;35.05;;;16.50;;
21729;SDS011;11027;51.030;13.812;2022-12-18T12:24:26;33.78;;;16.05;;
21729;SDS011;11027;51.030;13.812;2022-12-18T12:35:08;32.63;;;16.33;;
21729;SDS011;11027;51.030;13.812;2022-12-18T12:40:19;32.97;;;16.45;;
21729;SDS011;11027;51.030;13.812;2022-12-18T12:42:48;33.33;;;16.08;;
21729;SDS011;11027;51.030;13.812;2022-12-18T12:45:59;31.42;;;16.13;;
21729;SDS011;11027;51.030;13.812;2022-12-18T12:51:02;29.13;;;14.95;;
21729;SDS011;11027;51.030;13.812;2022-12-18T12:53:36;31.00;;;15.70;;
21729;SDS011;11027;51.030;13.812;2022-12-18T12:56:04;36.20;;;16.70;;
21729;SDS011;11027;51.030;13.812;2022-12-18T13:09:14;35.08;;;17.75;;
21729;SDS011;11027;51.030;13.812;2022-12-18T13:11:40;34.47;;;16.67;;
21729;SDS011;11027;51.030;13.812;2022-12-18T13:14:39;34.55;;;17.42;;
21729;SDS011;11027;51.030;13.812;2022-12-18T13:19:49;33.15;;;17.45;;
21729;SDS011;11027;51.030;13.812;2022-12-18T13:22:28;35.03;;;18.05;;
21729;SDS011;11027;51.030;13.812;2022-12-18T13:25:00;35.75;;;16.95;;
21729;SDS011;11027;51.030;13.812;2022-12-18T13:27:46;31.88;;;16.60;;
21729;SDS011;11027;51.030;13.812;2022-12-18T13:43:50;31.77;;;15.88;;
21729;SDS011;11027;51.030;13.812;2022-12-18T13:46:31;27.30;;;15.35;;
21729;SDS011;11027;51.030;13.812;2022-12-18T13:51:36;30.10;;;15.30;;
21729;SDS011;11027;51.030;13.812;2022-12-18T13:54:14;31.23;;;14.57;;
21729;SDS011;11027;51.030;13.812;2022-12-18T13:57:02;27.80;;;13.95;;
21729;SDS011;11027;51.030;13.812;2022-12-18T13:59:39;30.98;;;14.38;;
21729;SDS011;11027;51.030;13.812;2022-12-18T14:02:15;27.25;;;14.27;;
21729;SDS011;11027;51.030;13.812;2022-12-18T14:04:44;24.38;;;13.10;;
21729;SDS011;11027;51.030;13.812;2022-12-18T14:07:14;28.73;;;13.98;;
21729;SDS011;11027;51.030;13.812;2022-12-18T14:12:18;24.70;;;12.38;;
21729;SDS011;11027;51.030;13.812;2022-12-18T14:15:06;23.77;;;12.02;;
21729;SDS011;11027;51.030;13.812;2022-12-18T14:17:53;26.95;;;12.98;;
21729;SDS011;11027;51.030;13.812;2022-12-18T14:20:19;26.02;;;12.48;;
21729;SDS011;11027;51.030;13.812;2022-12-18T14:22:46;29.20;;;13.30;;
21729;SDS011;11027;51.030;13.812;2022-12-18T14:25:18;28.17;;;12.82;;
21729;SDS011;11027;51.030;13.812;2022-12-18T14:27:47;26.65;;;12.77;;
21729;SDS011;11027;51.030;13.812;2022-12-18T14:30:35;25.63;;;13.30;;
21729;SDS011;11027;51.030;13.812;2022-12-18T14:33:03;27.17;;;13.15;;
21729;SDS011;11027;51.030;13.812;2022-12-18T14:38:39;27.77;;;13.00;;
21729;SDS011;11027;51.030;13.812;2022-12-18T14:41:12;27.70;;;13.70;;
21729;SDS011;11027;51.030;13.812;2022-12-18T14:43:40;28.27;;;13.90;;
21729;SDS011;11027;51.030;13.812;2022-12-18T14:48:57;30.70;;;13.73;;
21729;SDS011;11027;51.030;13.812;2022-12-18T14:51:25;28.58;;;13.82;;
21729;SDS011;11027;51.030;13.812;2022-12-18T14:54:00;29.25;;;13.10;;
21729;SDS011;11027;51.030;13.812;2022-12-18T14:56:28;30.42;;;14.13;;
21729;SDS011;11027;51.030;13.812;2022-12-18T14:59:06;28.38;;;13.93;;
21729;SDS011;11027;51.030;13.812;2022-12-18T15:01:45;31.27;;;14.88;;
21729;SDS011;11027;51.030;13.812;2022-12-18T15:06:50;27.90;;;13.98;;
21729;SDS011;11027;51.030;13.812;2022-12-18T15:09:29;28.23;;;14.65;;
21729;SDS011;11027;51.030;13.812;2022-12-18T15:11:58;30.60;;;14.23;;
21729;SDS011;11027;51.030;13.812;2022-12-18T15:14:37;32.33;;;15.45;;
21729;SDS011;11027;51.030;13.812;2022-12-18T15:17:05;31.95;;;15.10;;
21729;SDS011;11027;51.030;13.812;2022-12-18T15:19:41;31.27;;;14.57;;
21729;SDS011;11027;51.030;13.812;2022-12-18T15:22:17;32.42;;;14.88;;
21729;SDS011;11027;51.030;13.812;2022-12-18T15:24:43;32.40;;;15.70;;
21729;SDS011;11027;51.030;13.812;2022-12-18T15:27:28;33.03;;;15.18;;
21729;SDS011;11027;51.030;13.812;2022-12-18T15:30:00;33.78;;;15.57;;
21729;SDS011;11027;51.030;13.812;2022-12-18T15:32:45;30.50;;;14.38;;
21729;SDS011;11027;51.030;13.812;2022-12-18T15:37:36;31.10;;;14.60;;
21729;SDS011;11027;51.030;13.812;2022-12-18T15:40:02;33.42;;;14.57;;
21729;SDS011;11027;51.030;13.812;2022-12-18T15:42:28;34.72;;;15.27;;
21729;SDS011;11027;51.030;13.812;2022-12-18T15:45:13;31.17;;;15.52;;
21729;SDS011;11027;51.030;13.812;2022-12-18T15:47:39;36.55;;;16.17;;
21729;SDS011;11027;51.030;13.812;2022-12-18T15:50:06;33.90;;;14.88;;
21729;SDS011;11027;51.030;13.812;2022-12-18T15:52:36;33.03;;;15.10;;
21729;SDS011;11027;51.030;13.812;2022-12-18T15:55:12;33.30;;;16.05;;
21729;SDS011;11027;51.030;13.812;2022-12-18T15:57:59;33.22;;;15.40;;
21729;SDS011;11027;51.030;13.812;2022-12-18T16:00:24;34.30;;;15.93;;
21729;SDS011;11027;51.030;13.812;2022-12-18T16:02:50;35.97;;;16.00;;
21729;SDS011;11027;51.030;13.812;2022-12-18T16:05:15;38.25;;;17.13;;
21729;SDS011;11027;51.030;13.812;2022-12-18T16:07:43;34.67;;;16.17;;
21729;SDS011;11027;51.030;13.812;2022-12-18T16:10:08;34.38;;;15.52;;
21729;SDS011;11027;51.030;13.812;2022-12-18T16:12:34;33.03;;;16.17;;
21729;SDS011;11027;51.030;13.812;2022-12-18T16:15:00;32.58;;;15.57;;
21729;SDS011;11027;51.030;13.812;2022-12-18T16:17:26;34.33;;;15.98;;
21729;SDS011;11027;51.030;13.812;2022-12-18T16:19:51;38.47;;;15.65;;
21729;SDS011;11027;51.030;13.812;2022-12-18T16:22:24;33.25;;;15.98;;
21729;SDS011;11027;51.030;13.812;2022-12-18T16:24:52;33.50;;;15.50;;